Time;durP1;ratioP1;P1;durP2;ratioP2;P2;SDS_P1;SDS_P2;PMS_P1;PMS_P2;Temp;Humidity;BMP_temperature;BMP_pressure;BME280_temperature;BME280_humidity;BME280_pressure;Samples;Min_cycle;Max_cycle;Signal;HPM_P1;HPM_P2
2023/07/02 00:00:59;;;;;;;1.33;1.20;;;18.00;99.90;;;;;;5051236;28;20052;-78
2023/07/02 00:03:25;;;;;;;1.33;1.25;;;17.90;99.90;;;;;;5032476;28;20085;-78
2023/07/02 00:05:54;;;;;;;1.75;1.42;;;17.90;99.90;;;;;;5041614;28;20032;-77
2023/07/02 00:08:21;;;;;;;1.58;1.48;;;18.00;99.90;;;;;;5023031;28;20021;-78
2023/07/02 00:10:46;;;;;;;1.15;1.15;;;18.00;99.90;;;;;;5034083;28;20032;-76
2023/07/02 00:13:12;;;;;;;4.13;1.83;;;18.00;99.90;;;;;;5055709;28;20129;-78
2023/07/02 00:15:38;;;;;;;1.30;1.30;;;18.00;99.90;;;;;;5037003;28;20041;-77
2023/07/02 00:18:04;;;;;;;1.02;0.98;;;18.00;99.90;;;;;;5045678;28;20141;-78
2023/07/02 00:20:30;;;;;;;1.70;1.55;;;18.00;99.90;;;;;;5056569;28;20025;-77
2023/07/02 00:22:56;;;;;;;1.58;1.48;;;18.00;99.90;;;;;;5071777;28;20060;-78
2023/07/02 00:25:22;;;;;;;1.45;1.35;;;18.10;99.90;;;;;;5054719;28;20060;-78
2023/07/02 00:27:47;;;;;;;2.05;1.90;;;18.10;99.90;;;;;;5062268;28;20044;-78
2023/07/02 00:30:13;;;;;;;3.55;1.95;;;18.10;99.90;;;;;;5061994;28;20048;-78
2023/07/02 00:32:39;;;;;;;2.30;1.77;;;18.10;99.90;;;;;;5045339;28;20518;-78
2023/07/02 00:35:05;;;;;;;1.35;1.25;;;18.10;99.90;;;;;;5060714;28;20040;-78
2023/07/02 00:37:31;;;;;;;1.55;1.45;;;18.10;99.90;;;;;;5042643;28;20029;-78
2023/07/02 00:39:57;;;;;;;1.63;1.52;;;18.10;99.90;;;;;;5060767;28;20086;-78
2023/07/02 00:42:23;;;;;;;1.60;1.50;;;18.10;99.90;;;;;;5059537;28;20452;-78
2023/07/02 00:44:52;;;;;;;1.67;1.58;;;18.10;99.90;;;;;;5045858;28;20024;-78
2023/07/02 00:47:18;;;;;;;1.83;1.45;;;18.20;99.90;;;;;;5043386;28;20029;-78
2023/07/02 00:49:44;;;;;;;1.50;1.40;;;18.10;99.90;;;;;;5061477;28;20055;-78
2023/07/02 00:52:10;;;;;;;1.40;1.30;;;18.10;99.90;;;;;;5053651;28;20028;-78
2023/07/02 00:54:36;;;;;;;1.20;1.20;;;18.20;99.90;;;;;;5079509;28;20024;-79
2023/07/02 00:57:03;;;;;;;1.50;1.40;;;18.20;99.90;;;;;;5064987;28;20033;-77
2023/07/02 00:59:30;;;;;;;2.08;1.83;;;18.20;99.90;;;;;;5035390;28;20068;-77
2023/07/02 01:01:56;;;;;;;1.90;1.60;;;18.20;99.90;;;;;;5036633;28;20026;-77
2023/07/02 01:04:27;;;;;;;1.55;1.45;;;18.20;99.90;;;;;;5054170;28;20029;-77
2023/07/02 01:06:57;;;;;;;1.05;1.02;;;18.20;99.90;;;;;;5051309;28;20453;-77
2023/07/02 01:09:26;;;;;;;1.33;1.23;;;18.20;99.90;;;;;;5035411;28;20030;-77
2023/07/02 01:11:56;;;;;;;1.40;1.30;;;18.20;99.90;;;;;;5034600;28;20029;-77
2023/07/02 01:14:32;;;;;;;1.10;1.00;;;18.10;99.90;;;;;;5038466;28;20347;-77
2023/07/02 01:16:59;;;;;;;1.40;1.30;;;18.00;99.90;;;;;;5054827;28;20389;-76
2023/07/02 01:19:43;;;;;;;1.38;1.27;;;18.00;99.90;;;;;;5037217;28;20090;-77
2023/07/02 01:22:10;;;;;;;1.17;1.17;;;17.90;99.90;;;;;;5038018;28;20021;-77
2023/07/02 01:24:36;;;;;;;2.42;1.17;;;17.90;99.90;;;;;;5037337;28;20024;-78
2023/07/02 01:27:02;;;;;;;1.55;1.20;;;17.80;99.90;;;;;;5056261;28;20033;-77
2023/07/02 01:29:31;;;;;;;1.00;1.00;;;17.80;99.90;;;;;;5054450;28;20094;-77
2023/07/02 01:31:57;;;;;;;2.28;1.00;;;17.80;99.90;;;;;;5055053;28;20104;-77
2023/07/02 01:34:23;;;;;;;1.38;0.95;;;17.80;99.90;;;;;;5053395;28;20025;-77
2023/07/02 01:36:49;;;;;;;0.90;0.80;;;17.80;99.90;;;;;;5053974;28;20473;-77
2023/07/02 01:39:15;;;;;;;0.82;0.82;;;17.80;99.90;;;;;;5054302;28;20112;-77
2023/07/02 01:42:06;;;;;;;1.05;0.95;;;17.80;99.90;;;;;;5054615;28;20071;-77
2023/07/02 01:44:32;;;;;;;0.85;0.85;;;17.80;99.90;;;;;;5054166;28;20122;-77
2023/07/02 01:46:58;;;;;;;1.15;0.90;;;17.80;99.90;;;;;;5054653;28;20631;-78
2023/07/02 01:49:25;;;;;;;1.65;1.00;;;17.80;99.90;;;;;;5055121;28;20096;-78
2023/07/02 01:51:55;;;;;;;1.00;1.00;;;17.70;99.90;;;;;;5073700;28;20047;-77
2023/07/02 01:54:22;;;;;;;1.17;1.02;;;17.70;99.90;;;;;;5086592;28;20093;-77
2023/07/02 01:56:48;;;;;;;0.82;0.82;;;17.70;99.90;;;;;;5049167;28;20061;-78
2023/07/02 01:59:15;;;;;;;0.82;0.82;;;17.60;99.90;;;;;;5060157;28;20044;-78
2023/07/02 02:01:40;;;;;;;0.95;0.95;;;17.70;99.90;;;;;;5059144;28;20031;-78
2023/07/02 02:04:07;;;;;;;0.80;0.80;;;17.70;99.90;;;;;;5057639;28;20490;-78
2023/07/02 02:06:33;;;;;;;1.33;1.23;;;17.60;99.90;;;;;;5053665;28;20017;-78
2023/07/02 02:08:59;;;;;;;1.42;0.90;;;17.50;99.90;;;;;;5039110;28;20083;-77
2023/07/02 02:11:25;;;;;;;0.98;0.98;;;17.40;99.90;;;;;;5044102;28;20037;-77
2023/07/02 02:13:51;;;;;;;0.80;0.80;;;17.30;99.90;;;;;;5042351;28;20021;-77
2023/07/02 02:16:16;;;;;;;1.05;0.95;;;17.20;99.90;;;;;;5048821;28;20102;-78
2023/07/02 02:18:42;;;;;;;0.60;0.60;;;17.20;99.90;;;;;;5043199;28;20040;-78
2023/07/02 02:21:08;;;;;;;1.08;1.08;;;17.10;99.90;;;;;;5068079;28;20013;-76
2023/07/02 02:23:33;;;;;;;0.90;0.90;;;17.00;99.90;;;;;;5055607;28;20051;-78
2023/07/02 02:25:59;;;;;;;0.90;0.90;;;17.00;99.90;;;;;;5078787;28;20128;-77
2023/07/02 02:28:25;;;;;;;0.70;0.70;;;17.00;99.90;;;;;;5060572;28;20036;-76
2023/07/02 02:30:51;;;;;;;1.25;0.90;;;17.00;99.90;;;;;;5040051;28;20393;-77
2023/07/02 02:33:16;;;;;;;0.95;0.95;;;17.00;99.90;;;;;;5059458;28;20045;-78
2023/07/02 02:35:42;;;;;;;0.80;0.80;;;17.10;99.90;;;;;;5052331;28;20029;-78
2023/07/02 02:38:08;;;;;;;0.90;0.90;;;17.20;99.90;;;;;;5063965;28;20033;-77
2023/07/02 02:40:34;;;;;;;1.08;1.08;;;17.30;99.90;;;;;;5041341;28;20018;-78
2023/07/02 02:43:00;;;;;;;1.00;1.00;;;17.30;99.90;;;;;;5051413;28;20021;-78
2023/07/02 02:45:26;;;;;;;0.80;0.75;;;17.40;99.90;;;;;;5059373;28;20120;-77
2023/07/02 02:47:51;;;;;;;1.20;1.10;;;17.40;99.90;;;;;;5062230;28;20055;-77
2023/07/02 02:50:17;;;;;;;0.88;0.88;;;17.40;99.90;;;;;;5047667;28;20039;-78
2023/07/02 02:52:43;;;;;;;0.93;0.90;;;17.40;99.90;;;;;;5056209;28;20020;-77
2023/07/02 02:55:13;;;;;;;0.77;0.77;;;17.40;99.90;;;;;;5065707;28;20052;-77
2023/07/02 02:57:39;;;;;;;0.75;0.75;;;17.50;99.90;;;;;;5089327;28;20017;-77
2023/07/02 03:00:06;;;;;;;0.70;0.70;;;17.50;99.90;;;;;;5073119;28;20040;-76
2023/07/02 03:02:32;;;;;;;0.93;0.93;;;17.50;99.90;;;;;;5052646;28;20037;-77
2023/07/02 03:05:02;;;;;;;0.80;0.80;;;17.60;99.90;;;;;;5070573;28;20076;-77
2023/07/02 03:07:28;;;;;;;0.80;0.80;;;17.70;99.90;;;;;;5054010;28;20021;-77
2023/07/02 03:09:54;;;;;;;0.90;0.90;;;17.70;99.90;;;;;;5054567;28;20044;-77
2023/07/02 03:12:20;;;;;;;0.82;0.82;;;17.70;99.90;;;;;;5055253;28;20055;-77
2023/07/02 03:14:47;;;;;;;1.02;0.93;;;17.70;99.90;;;;;;5057251;28;20052;-77
2023/07/02 03:17:13;;;;;;;1.02;1.02;;;17.70;99.90;;;;;;5065118;28;20155;-78
2023/07/02 03:19:38;;;;;;;0.80;0.80;;;17.60;99.90;;;;;;5059094;28;20029;-78
2023/07/02 03:22:04;;;;;;;0.98;0.98;;;17.60;99.90;;;;;;5073649;28;20029;-78
2023/07/02 03:24:30;;;;;;;1.00;1.00;;;17.60;99.90;;;;;;5043069;28;20025;-77
2023/07/02 03:26:56;;;;;;;6.93;2.90;;;;;;;;;;5043158;28;20796;-78
2023/07/02 03:29:22;;;;;;;6.00;2.38;;;17.30;99.90;;;;;;5056347;28;20036;-78
2023/07/02 03:31:48;;;;;;;1.77;1.67;;;16.50;99.90;;;;;;5051337;28;20026;-77
2023/07/02 03:34:13;;;;;;;2.35;2.08;;;15.70;99.90;;;;;;5034264;28;20045;-77
2023/07/02 03:36:39;;;;;;;1.85;1.75;;;15.00;99.90;;;;;;5049876;28;20024;-77
2023/07/02 03:39:05;;;;;;;2.17;1.98;;;14.60;99.90;;;;;;5053091;28;20054;-76
2023/07/02 03:41:31;;;;;;;2.55;2.20;;;14.30;99.90;;;;;;5035277;28;20021;-76
2023/07/02 03:43:57;;;;;;;2.00;1.90;;;14.10;99.90;;;;;;5051896;28;20025;-78
2023/07/02 03:46:22;;;;;;;2.17;2.00;;;14.00;99.90;;;;;;5038537;28;20118;-77
2023/07/02 03:48:48;;;;;;;1.70;1.60;;;13.90;99.90;;;;;;5036029;28;20025;-77
2023/07/02 03:51:15;;;;;;;1.80;1.70;;;13.90;99.90;;;;;;5050605;28;20418;-76
2023/07/02 03:53:44;;;;;;;1.63;1.52;;;13.90;99.90;;;;;;5052719;28;20055;-76
2023/07/02 03:56:09;;;;;;;1.80;1.70;;;13.80;99.90;;;;;;5051941;28;20466;-77
2023/07/02 03:58:35;;;;;;;1.48;1.40;;;13.80;99.90;;;;;;5052630;28;20040;-76
2023/07/02 04:01:01;;;;;;;1.48;1.45;;;13.80;99.90;;;;;;5052686;28;20025;-76
2023/07/02 04:03:26;;;;;;;1.35;1.27;;;13.80;99.90;;;;;;5052011;28;20082;-76
2023/07/02 04:05:52;;;;;;;1.17;1.17;;;13.80;99.90;;;;;;5051589;28;20558;-77
2023/07/02 04:08:20;;;;;;;1.45;1.42;;;13.80;99.90;;;;;;5053409;28;20045;-75
2023/07/02 04:10:46;;;;;;;0.90;0.90;;;13.80;99.90;;;;;;5025959;28;20036;-76
2023/07/02 04:13:12;;;;;;;1.10;1.10;;;13.80;99.90;;;;;;5053475;28;20037;-76
2023/07/02 04:15:38;;;;;;;0.90;0.90;;;13.80;99.90;;;;;;5051715;28;20090;-77
2023/07/02 04:18:03;;;;;;;0.70;0.70;;;13.80;99.90;;;;;;5052755;28;20028;-75
2023/07/02 04:20:29;;;;;;;0.90;0.90;;;13.80;99.90;;;;;;5059481;28;20103;-77
2023/07/02 04:22:55;;;;;;;0.80;0.80;;;13.80;99.90;;;;;;5052780;28;20025;-76
2023/07/02 04:25:21;;;;;;;0.73;0.73;;;13.80;99.90;;;;;;5051442;28;20025;-75
2023/07/02 04:27:47;;;;;;;0.75;0.75;;;13.90;99.90;;;;;;5052015;28;20462;-75
2023/07/02 04:30:14;;;;;;;0.40;0.40;;;13.90;99.90;;;;;;5033950;28;20044;-76
2023/07/02 04:32:40;;;;;;;0.60;0.60;;;14.00;99.90;;;;;;5052443;28;20393;-76
2023/07/02 04:35:11;;;;;;;0.57;0.57;;;14.10;99.90;;;;;;5054109;28;20417;-76
2023/07/02 04:37:36;;;;;;;0.60;0.60;;;14.10;99.90;;;;;;5061699;28;20020;-76
2023/07/02 04:40:12;;;;;;;0.32;0.32;;;14.10;99.90;;;;;;5055247;28;20089;-76
2023/07/02 04:42:46;;;;;;;0.50;0.50;;;14.20;99.90;;;;;;5054996;28;20021;-76
2023/07/02 04:45:13;;;;;;;0.40;0.40;;;14.20;99.90;;;;;;5052807;28;20025;-76
2023/07/02 04:47:38;;;;;;;0.22;0.22;;;14.30;99.90;;;;;;5054969;28;20431;-76
2023/07/02 04:50:05;;;;;;;0.30;0.30;;;14.40;99.90;;;;;;5058084;28;20076;-76
2023/07/02 04:52:31;;;;;;;0.20;0.20;;;14.50;99.90;;;;;;5069373;28;20031;-76
2023/07/02 04:54:57;;;;;;;0.10;0.10;;;14.50;99.90;;;;;;5050171;28;20032;-77
2023/07/02 04:57:23;;;;;;;0.10;0.10;;;14.60;99.90;;;;;;5046284;28;20029;-76
2023/07/02 04:59:48;;;;;;;0.10;0.10;;;14.60;99.90;;;;;;5073529;28;20043;-75
2023/07/02 05:02:14;;;;;;;0.10;0.10;;;14.60;99.90;;;;;;5063475;28;20024;-76
2023/07/02 05:04:40;;;;;;;0.10;0.10;;;14.60;99.90;;;;;;5071766;28;20036;-76
2023/07/02 05:07:06;;;;;;;0.20;0.20;;;14.50;99.90;;;;;;5064313;28;20087;-76
2023/07/02 05:09:31;;;;;;;0.10;0.10;;;14.50;99.90;;;;;;5053712;28;20513;-76
2023/07/02 05:11:57;;;;;;;0.15;0.15;;;14.50;99.90;;;;;;5078803;28;20026;-75
2023/07/02 05:14:23;;;;;;;0.10;0.10;;;14.50;99.90;;;;;;5082487;28;20084;-75
2023/07/02 05:16:49;;;;;;;0.00;0.00;;;14.60;99.90;;;;;;5073441;28;20025;-75
2023/07/02 05:19:15;;;;;;;0.10;0.10;;;14.50;99.90;;;;;;5065312;28;20469;-76
2023/07/02 05:21:41;;;;;;;0.10;0.10;;;14.50;99.90;;;;;;5067707;28;20025;-76
2023/07/02 05:24:08;;;;;;;0.10;0.10;;;14.50;99.90;;;;;;5067494;28;20454;-76
2023/07/02 05:26:34;;;;;;;0.10;0.10;;;14.60;99.90;;;;;;5053172;28;20021;-76
2023/07/02 05:28:59;;;;;;;0.10;0.10;;;14.60;99.90;;;;;;5057306;28;20119;-77
2023/07/02 05:31:25;;;;;;;0.10;0.10;;;14.70;99.90;;;;;;5042666;28;20067;-76
2023/07/02 05:33:51;;;;;;;0.00;0.00;;;14.90;99.90;;;;;;5036096;28;20029;-77
2023/07/02 05:36:16;;;;;;;0.00;0.00;;;15.00;99.90;;;;;;5038883;28;20035;-78
2023/07/02 05:38:42;;;;;;;0.00;0.00;;;15.10;99.90;;;;;;5056990;28;20408;-76
2023/07/02 05:41:08;;;;;;;0.00;0.00;;;15.20;99.90;;;;;;5066613;28;20094;-76
2023/07/02 05:43:33;;;;;;;0.00;0.00;;;15.30;99.90;;;;;;5062178;28;20112;-76
2023/07/02 05:46:02;;;;;;;0.00;0.00;;;15.40;99.90;;;;;;5063234;28;20040;-76
2023/07/02 05:48:28;;;;;;;0.00;0.00;;;15.50;99.90;;;;;;5062214;28;20116;-76
2023/07/02 05:50:55;;;;;;;0.00;0.00;;;15.70;99.90;;;;;;5054339;28;20055;-76
2023/07/02 05:53:21;;;;;;;0.00;0.00;;;15.80;99.90;;;;;;5054698;28;20036;-76
2023/07/02 05:55:48;;;;;;;0.00;0.00;;;15.90;99.90;;;;;;5060205;28;20029;-77
2023/07/02 05:58:13;;;;;;;0.00;0.00;;;15.90;99.90;;;;;;5060807;28;20025;-77
2023/07/02 06:00:41;;;;;;;0.00;0.00;;;15.80;99.90;;;;;;5047489;28;20377;-75
2023/07/02 06:03:07;;;;;;;0.00;0.00;;;15.90;99.90;;;;;;5055988;28;20105;-77
2023/07/02 06:05:33;;;;;;;0.00;0.00;;;15.80;99.90;;;;;;5056475;28;20048;-77
2023/07/02 06:07:58;;;;;;;0.00;0.00;;;15.70;99.90;;;;;;5058023;28;20025;-77
2023/07/02 06:10:25;;;;;;;0.00;0.00;;;15.70;99.90;;;;;;5057168;28;20021;-77
2023/07/02 06:12:52;;;;;;;0.00;0.00;;;15.80;99.90;;;;;;5038918;28;20094;-78
2023/07/02 06:15:17;;;;;;;0.10;0.10;;;15.80;99.90;;;;;;5039736;28;20037;-76
2023/07/02 06:17:43;;;;;;;0.00;0.00;;;15.70;99.90;;;;;;5060687;28;20114;-76
2023/07/02 06:20:09;;;;;;;0.00;0.00;;;15.80;99.90;;;;;;5062295;28;20025;-78
2023/07/02 06:22:35;;;;;;;0.00;0.00;;;15.80;99.90;;;;;;5064543;28;20027;-77
2023/07/02 06:25:00;;;;;;;0.00;0.00;;;15.80;99.90;;;;;;5049422;28;20025;-78
2023/07/02 06:27:26;;;;;;;0.00;0.00;;;15.70;99.90;;;;;;5047691;28;20035;-76
2023/07/02 06:29:52;;;;;;;0.00;0.00;;;15.70;99.90;;;;;;5057493;28;20071;-76
2023/07/02 06:32:18;;;;;;;0.00;0.00;;;15.60;99.90;;;;;;5058168;28;20025;-78
2023/07/02 06:34:43;;;;;;;0.00;0.00;;;15.50;99.90;;;;;;5040064;28;20021;-78
2023/07/02 06:37:09;;;;;;;0.10;0.10;;;15.50;99.90;;;;;;5038923;28;20055;-77
2023/07/02 06:39:34;;;;;;;0.00;0.00;;;15.50;99.90;;;;;;5065459;28;20037;-78
2023/07/02 06:42:00;;;;;;;0.10;0.10;;;15.50;99.90;;;;;;5055933;28;20059;-77
2023/07/02 06:44:26;;;;;;;0.10;0.10;;;15.50;99.90;;;;;;5056439;28;20523;-77
2023/07/02 06:46:51;;;;;;;0.08;0.08;;;15.50;99.90;;;;;;5056832;28;20458;-78
2023/07/02 06:49:17;;;;;;;0.10;0.10;;;15.50;99.90;;;;;;5040103;28;20029;-78
2023/07/02 06:51:43;;;;;;;0.00;0.00;;;15.50;99.90;;;;;;5057001;28;20072;-79
2023/07/02 06:54:08;;;;;;;0.05;0.05;;;15.60;99.90;;;;;;5038464;28;20135;-77
2023/07/02 06:56:34;;;;;;;0.10;0.10;;;15.60;99.90;;;;;;5056544;28;20033;-77
2023/07/02 06:59:00;;;;;;;0.10;0.10;;;15.60;99.90;;;;;;5057110;28;20020;-77
2023/07/02 07:01:26;;;;;;;0.13;0.13;;;15.60;99.90;;;;;;5056072;28;20104;-78
2023/07/02 07:03:52;;;;;;;0.30;0.30;;;15.50;99.90;;;;;;5054664;28;20064;-78
2023/07/02 07:06:18;;;;;;;0.40;0.40;;;15.40;99.90;;;;;;5058467;28;20032;-77
2023/07/02 07:08:44;;;;;;;0.30;0.30;;;;;;;;;;5060645;28;20037;-79
2023/07/02 07:11:10;;;;;;;0.38;0.38;;;;;;;;;;5077856;28;20033;-78
2023/07/02 07:13:36;;;;;;;0.25;0.25;;;;;;;;;;5057682;28;20090;-78
2023/07/02 07:16:02;;;;;;;0.40;0.40;;;;;;;;;;5059780;28;20029;-78
2023/07/02 07:18:28;;;;;;;0.60;0.60;;;;;;;;;;5062098;28;20188;-77
2023/07/02 07:20:54;;;;;;;0.80;0.80;;;15.20;99.90;;;;;;5068475;28;20037;-77
2023/07/02 07:23:19;;;;;;;0.70;0.70;;;15.20;99.90;;;;;;5061200;28;20040;-78
2023/07/02 07:25:45;;;;;;;0.73;0.73;;;15.10;99.90;;;;;;5055750;28;20029;-78
2023/07/02 07:28:16;;;;;;;0.80;0.80;;;15.10;99.90;;;;;;5047618;28;20029;-78
2023/07/02 07:30:45;;;;;;;0.68;0.68;;;15.00;99.90;;;;;;5048539;28;20032;-77
2023/07/02 07:33:11;;;;;;;0.70;0.70;;;15.10;99.90;;;;;;5044227;28;20507;-79
2023/07/02 07:35:36;;;;;;;0.60;0.60;;;15.10;99.90;;;;;;5059685;28;20045;-77
2023/07/02 07:38:02;;;;;;;0.80;0.80;;;15.10;99.90;;;;;;5056209;28;20051;-76
2023/07/02 07:40:28;;;;;;;1.20;1.20;;;15.00;99.90;;;;;;5038770;28;20025;-78
2023/07/02 07:42:54;;;;;;;1.30;1.30;;;15.00;99.90;;;;;;5038160;28;20021;-77
2023/07/02 07:45:20;;;;;;;1.25;1.15;;;15.00;99.90;;;;;;5055223;28;20027;-78
2023/07/02 07:47:45;;;;;;;1.50;1.40;;;15.00;99.90;;;;;;5056727;28;20488;-77
2023/07/02 07:50:11;;;;;;;1.67;1.58;;;15.00;99.90;;;;;;5055896;28;20028;-78
2023/07/02 07:52:41;;;;;;;1.98;1.88;;;15.10;99.90;;;;;;5054527;28;20086;-79
2023/07/02 07:55:08;;;;;;;2.10;1.95;;;15.10;99.90;;;;;;5053872;28;20021;-77
2023/07/02 07:57:36;;;;;;;2.08;1.98;;;15.10;99.90;;;;;;5062946;28;20035;-78
2023/07/02 08:00:05;;;;;;;2.20;2.10;;;15.10;99.90;;;;;;5055675;28;20049;-76
2023/07/02 08:02:31;;;;;;;1.70;1.60;;;15.20;99.90;;;;;;5058694;28;20021;-78
2023/07/02 08:04:56;;;;;;;2.05;1.95;;;15.30;99.90;;;;;;5060215;28;20079;-78
2023/07/02 08:07:22;;;;;;;1.38;1.38;;;15.60;99.90;;;;;;5057517;28;20211;-78
2023/07/02 08:09:48;;;;;;;1.15;1.15;;;15.90;99.90;;;;;;5055660;28;20025;-77
2023/07/02 08:12:14;;;;;;;1.00;1.00;;;16.30;99.90;;;;;;5055952;28;20107;-77
2023/07/02 08:14:39;;;;;;;0.85;0.85;;;16.60;99.90;;;;;;5056299;28;20035;-77
2023/07/02 08:17:06;;;;;;;0.77;0.77;;;17.00;99.90;;;;;;5055871;28;20036;-77
2023/07/02 08:19:31;;;;;;;0.90;0.90;;;17.40;99.90;;;;;;5057850;28;20013;-78
2023/07/02 08:21:57;;;;;;;0.80;0.80;;;17.60;99.90;;;;;;5064171;28;20089;-79
2023/07/02 08:24:23;;;;;;;0.70;0.70;;;17.90;99.90;;;;;;5037356;28;20021;-77
2023/07/02 08:26:49;;;;;;;0.80;0.80;;;18.00;99.90;;;;;;5036960;28;20021;-78
2023/07/02 08:29:15;;;;;;;0.77;0.77;;;17.80;99.90;;;;;;5058976;28;20032;-78
2023/07/02 08:31:41;;;;;;;0.73;0.73;;;17.70;99.90;;;;;;5075392;28;20088;-78
2023/07/02 08:34:07;;;;;;;0.88;0.88;;;17.60;99.90;;;;;;5059838;28;20036;-77
2023/07/02 08:36:32;;;;;;;1.10;0.82;;;17.40;99.90;;;;;;5054849;28;20025;-78
2023/07/02 08:38:58;;;;;;;0.68;0.68;;;17.20;99.90;;;;;;5052804;28;20073;-77
2023/07/02 08:41:24;;;;;;;0.75;0.75;;;17.10;99.90;;;;;;5055022;28;20043;-77
2023/07/02 08:43:51;;;;;;;0.80;0.80;;;17.00;99.90;;;;;;5055294;28;20627;-78
2023/07/02 08:46:17;;;;;;;0.80;0.80;;;17.00;99.90;;;;;;5055300;28;20119;-81
2023/07/02 08:48:44;;;;;;;0.80;0.80;;;17.00;99.90;;;;;;5058419;28;20032;-79
2023/07/02 08:51:10;;;;;;;1.30;1.20;;;17.00;99.90;;;;;;5053635;28;20017;-78
2023/07/02 08:53:40;;;;;;;0.65;0.65;;;17.10;99.90;;;;;;5042659;28;20021;-78
2023/07/02 08:56:05;;;;;;;0.90;0.90;;;17.20;99.90;;;;;;5042614;28;20124;-78
2023/07/02 08:58:31;;;;;;;0.70;0.70;;;17.10;99.90;;;;;;5059331;28;20032;-78
2023/07/02 09:01:10;;;;;;;0.95;0.95;;;17.00;99.90;;;;;;5046030;28;20342;-78
2023/07/02 09:03:37;;;;;;;0.93;0.93;;;17.00;99.90;;;;;;5063929;28;20021;-76
2023/07/02 09:06:05;;;;;;;1.10;1.10;;;16.80;99.90;;;;;;5065035;28;20021;-78
2023/07/02 09:08:33;;;;;;;1.48;1.40;;;16.70;99.90;;;;;;5055891;28;20032;-77
2023/07/02 09:11:05;;;;;;;1.10;1.10;;;16.50;99.90;;;;;;5051703;28;20406;-77
2023/07/02 09:13:31;;;;;;;1.10;1.10;;;16.50;99.90;;;;;;5054491;28;20021;-77
2023/07/02 09:15:57;;;;;;;1.17;1.17;;;16.50;99.90;;;;;;5060077;28;20083;-77
2023/07/02 09:18:24;;;;;;;1.30;1.25;;;16.50;99.90;;;;;;5069677;28;20037;-77
2023/07/02 09:20:56;;;;;;;1.02;1.02;;;16.50;99.90;;;;;;5067813;28;20385;-77
2023/07/02 09:23:22;;;;;;;1.17;1.10;;;16.60;99.90;;;;;;5067474;28;20116;-77
2023/07/02 09:25:47;;;;;;;1.00;1.00;;;16.60;99.90;;;;;;5066032;28;20492;-79
2023/07/02 09:28:23;;;;;;;0.75;0.75;;;16.80;99.90;;;;;;5065897;28;20029;-78
2023/07/02 09:30:58;;;;;;;0.80;0.80;;;16.90;99.90;;;;;;5057173;28;20546;-78
2023/07/02 09:33:28;;;;;;;0.73;0.73;;;16.90;99.90;;;;;;5049069;28;20033;-78
2023/07/02 09:35:55;;;;;;;0.73;0.73;;;16.80;99.90;;;;;;5052135;28;20025;-78
2023/07/02 09:38:21;;;;;;;0.70;0.70;;;16.80;99.90;;;;;;5052740;28;20500;-78
2023/07/02 09:40:50;;;;;;;0.60;0.60;;;16.80;99.90;;;;;;5048331;28;20013;-79
2023/07/02 09:43:17;;;;;;;0.50;0.50;;;16.90;99.90;;;;;;5058404;28;20094;-81
2023/07/02 09:45:49;;;;;;;0.60;0.60;;;16.90;99.90;;;;;;5073971;28;20061;-80
2023/07/02 09:48:16;;;;;;;0.52;0.52;;;17.00;99.90;;;;;;5041416;28;20041;-80
2023/07/02 09:50:51;;;;;;;0.40;0.40;;;17.10;99.90;;;;;;5059269;28;20081;-79
2023/07/02 09:53:17;;;;;;;0.40;0.40;;;17.20;99.90;;;;;;5059089;28;20087;-78
2023/07/02 09:55:43;;;;;;;0.40;0.40;;;17.40;99.90;;;;;;5040335;28;20037;-78
2023/07/02 09:58:10;;;;;;;0.30;0.30;;;17.50;99.90;;;;;;5046655;28;20028;-79
2023/07/02 10:00:36;;;;;;;0.43;0.43;;;17.60;99.90;;;;;;5066880;28;20033;-80
2023/07/02 10:03:02;;;;;;;0.40;0.40;;;17.70;99.90;;;;;;5061813;28;20059;-80
2023/07/02 10:05:32;;;;;;;0.40;0.40;;;;;;;;;;5061054;28;20036;-79
2023/07/02 10:07:59;;;;;;;0.70;0.70;;;17.50;99.90;;;;;;5063088;28;20096;-80
2023/07/02 10:10:29;;;;;;;0.52;0.52;;;17.50;99.90;;;;;;5066538;28;20045;-79
2023/07/02 10:12:55;;;;;;;0.68;0.68;;;17.50;99.90;;;;;;5078131;28;20148;-78
2023/07/02 10:15:26;;;;;;;0.95;0.85;;;17.40;99.90;;;;;;5077116;28;20024;-79
2023/07/02 10:17:59;;;;;;;0.60;0.60;;;17.30;99.90;;;;;;5072879;28;20120;-79
2023/07/02 10:20:35;;;;;;;0.90;0.90;;;17.40;99.90;;;;;;5075262;28;20076;-80
2023/07/02 10:23:01;;;;;;;0.90;0.90;;;17.70;99.90;;;;;;5075909;28;20036;-79
2023/07/02 10:25:33;;;;;;;0.63;0.60;;;18.40;99.90;;;;;;5074703;28;20021;-77
2023/07/02 10:28:00;;;;;;;1.13;1.13;;;19.30;99.90;;;;;;5069162;28;20044;-78
2023/07/02 10:30:34;;;;;;;1.00;1.00;;;20.10;99.90;;;;;;5060442;28;20072;-79
2023/07/02 10:33:16;;;;;;;1.33;1.30;;;20.20;99.90;;;;;;5059859;28;20112;-79
2023/07/02 10:35:46;;;;;;;1.40;1.30;;;20.30;99.90;;;;;;5040880;28;20025;-78
2023/07/02 10:38:20;;;;;;;1.50;1.40;;;20.30;99.90;;;;;;5046414;28;20029;-79
2023/07/02 10:40:46;;;;;;;1.25;1.25;;;20.40;99.90;;;;;;5044218;28;20489;-80
2023/07/02 10:43:11;;;;;;;2.50;2.30;;;20.40;99.90;;;;;;5057431;28;20029;-78
2023/07/02 10:45:37;;;;;;;3.45;3.15;;;20.40;99.90;;;;;;5064908;28;20037;-76
2023/07/02 10:48:04;;;;;;;2.88;2.67;;;20.40;99.90;;;;;;5068004;28;20025;-78
2023/07/02 10:50:31;;;;;;;2.90;2.60;;;20.30;99.90;;;;;;5057075;28;20107;-78
2023/07/02 10:52:58;;;;;;;2.95;2.75;;;20.40;99.90;;;;;;5055190;28;20084;-78
2023/07/02 10:55:25;;;;;;;3.28;2.97;;;20.50;99.90;;;;;;5041653;28;20049;-78
2023/07/02 10:58:02;;;;;;;4.93;3.67;;;20.70;99.90;;;;;;5037701;28;20033;-78
2023/07/02 11:00:29;;;;;;;3.78;3.38;;;20.70;99.90;;;;;;5054729;28;20039;-78
2023/07/02 11:02:55;;;;;;;3.55;3.25;;;20.90;99.90;;;;;;5063602;28;20024;-77
2023/07/02 11:05:20;;;;;;;4.70;3.90;;;21.00;99.90;;;;;;5040202;28;20043;-77
2023/07/02 11:07:46;;;;;;;5.35;4.82;;;21.20;99.90;;;;;;5057483;28;20039;-80
2023/07/02 11:10:19;;;;;;;4.75;4.30;;;21.60;99.90;;;;;;5060153;28;20048;-78
2023/07/02 11:12:45;;;;;;;5.53;4.35;;;21.40;99.90;;;;;;5041147;28;20128;-78
2023/07/02 11:15:17;;;;;;;4.65;3.97;;;21.40;99.90;;;;;;5061919;28;20061;-80
2023/07/02 11:18:16;;;;;;;5.60;5.00;;;21.30;99.90;;;;;;5061770;28;20043;-79
2023/07/02 11:20:54;;;;;;;5.60;4.43;;;21.40;99.90;;;;;;5021519;28;20033;-77
2023/07/02 11:23:24;;;;;;;5.75;5.00;;;21.80;99.90;;;;;;5059481;28;20269;-79
2023/07/02 11:26:00;;;;;;;7.05;5.90;;;22.30;99.90;;;;;;5041237;28;20045;-80
2023/07/02 11:28:27;;;;;;;12.13;7.90;;;22.50;99.90;;;;;;5043343;28;20110;-79
2023/07/02 11:30:54;;;;;;;9.98;7.38;;;22.80;96.80;;;;;;5042202;28;20036;-81
2023/07/02 11:33:32;;;;;;;8.30;6.88;;;22.60;96.20;;;;;;5058671;28;20079;-80
2023/07/02 11:35:57;;;;;;;7.85;6.70;;;22.30;97.80;;;;;;5060421;28;20021;-79
2023/07/02 11:38:23;;;;;;;8.77;7.00;;;22.10;98.60;;;;;;5048070;28;20025;-79
2023/07/02 11:40:49;;;;;;;9.07;6.40;;;22.10;98.20;;;;;;5048915;28;20063;-79
2023/07/02 11:43:15;;;;;;;11.70;7.78;;;22.20;97.00;;;;;;5074641;28;20051;-78
2023/07/02 11:45:43;;;;;;;9.18;7.13;;;22.20;94.60;;;;;;5074032;28;20059;-80
2023/07/02 11:48:09;;;;;;;9.90;7.78;;;22.20;96.00;;;;;;5079184;28;20076;-77
2023/07/02 11:50:34;;;;;;;7.88;6.38;;;22.10;92.80;;;;;;5069183;28;20059;-78
2023/07/02 11:53:00;;;;;;;8.25;7.35;;;21.80;96.70;;;;;;5066310;28;20722;-78
2023/07/02 11:55:26;;;;;;;8.82;7.15;;;21.60;98.70;;;;;;5049513;28;20039;-79
2023/07/02 11:57:51;;;;;;;8.10;6.60;;;21.50;97.00;;;;;;5046736;28;20052;-77
2023/07/02 12:00:17;;;;;;;8.80;7.22;;;;;;;;;;5062624;28;20484;-78
2023/07/02 12:02:44;;;;;;;7.70;6.90;;;;;;;;;;5062988;28;20033;-78
2023/07/02 12:05:10;;;;;;;8.70;7.03;;;;;;;;;;5058926;28;20035;-79
2023/07/02 12:07:36;;;;;;;7.55;6.47;;;;;;;;;;5060490;28;20036;-78
2023/07/02 12:10:02;;;;;;;11.18;8.13;;;22.60;98.10;;;;;;5060305;28;20707;-78
2023/07/02 12:12:27;;;;;;;7.60;6.82;;;22.60;93.20;;;;;;5061517;28;20025;-78
2023/07/02 12:14:53;;;;;;;8.50;6.90;;;22.30;96.40;;;;;;5043362;28;20032;-78
2023/07/02 12:17:19;;;;;;;8.10;6.55;;;22.50;98.00;;;;;;5043113;28;20025;-79
2023/07/02 12:19:44;;;;;;;8.32;7.32;;;22.90;96.10;;;;;;5045142;28;20072;-77
2023/07/02 12:22:10;;;;;;;11.50;8.45;;;23.20;94.50;;;;;;5070897;28;20013;-79
2023/07/02 12:24:36;;;;;;;11.10;8.30;;;23.30;91.10;;;;;;5063465;28;20017;-79
2023/07/02 12:27:02;;;;;;;10.77;8.52;;;23.30;90.70;;;;;;5063939;28;20465;-78
2023/07/02 12:29:28;;;;;;;9.20;8.13;;;23.20;90.80;;;;;;5060839;28;20165;-78
2023/07/02 12:31:54;;;;;;;11.38;7.63;;;23.00;94.10;;;;;;5064195;28;20039;-78
2023/07/02 12:34:19;;;;;;;12.77;9.05;;;23.00;94.80;;;;;;5061270;28;20025;-78
2023/07/02 12:36:45;;;;;;;12.43;9.27;;;23.20;90.40;;;;;;5064795;28;20258;-78
2023/07/02 12:39:10;;;;;;;11.48;9.10;;;22.90;92.10;;;;;;5063426;28;20077;-78
2023/07/02 12:41:36;;;;;;;13.68;9.52;;;22.80;92.90;;;;;;5060046;28;20047;-77
2023/07/02 12:44:02;;;;;;;12.88;8.57;;;22.70;90.60;;;;;;5059746;28;20024;-79
2023/07/02 12:46:28;;;;;;;11.18;9.05;;;22.30;94.60;;;;;;5065533;28;20088;-81
2023/07/02 12:48:53;;;;;;;13.82;11.27;;;22.10;95.20;;;;;;5068903;28;20123;-79